CheckWX is a tool to help pilots better visualize weather data.  It is not intended as a substitute for an official pre-flight weather briefing.

15:18:23 UTC

ESCF METAR
Malmen Air Base Airport
Linköping, Sweden
Current

28 mins ago

ESCF 201450Z AUTO 13006KT 100V170 9999 NCD 22/15 Q1009
Observed
May-20 @ 14:50 UTC
Wind
  • 130° at 6 KTS
Visibility
10,000+ meters
Flight Rules
VFR
Cloud Levels
  • Clear skies
Temperature
22°C / 72°F
Dewpoint
15°C / 59°F
Humidity
65%
Altimeter
29.79" Hg
Pressure
1008.92 hPa
Previous

58 mins ago

ESCF 201420Z AUTO 10006KT 070V150 9999 SCT045/// 22/15 Q1009
Observed
May-20 @ 14:20 UTC
Wind
  • 100° at 6 KTS
Visibility
10,000+ meters
Flight Rules
VFR
Cloud Levels
  • Scattered at 4,500' AGL
Temperature
22°C / 72°F
Dewpoint
15°C / 59°F
Humidity
65%
Altimeter
29.79" Hg
Pressure
1008.92 hPa
Previous

1 hour ago

ESCF 201350Z 10007KT 070V170 9999 SCT037TCU 23/15 Q1009
Observed
May-20 @ 13:50 UTC
Wind
  • 100° at 7 KTS
Visibility
10,000+ meters
Flight Rules
VFR
Cloud Levels
  • Scattered at 3,700' AGL
Temperature
23°C / 73°F
Dewpoint
15°C / 59°F
Humidity
61%
Altimeter
29.79" Hg
Pressure
1008.92 hPa